sensor_id;sensor_type;location;lat;lon;timestamp;P1;durP1;ratioP1;P2;durP2;ratioP2
37609;SDS011;23457;51.966;8.230;2023-08-01T00:01:06;2.05;;;1.85;;
37609;SDS011;23457;51.966;8.230;2023-08-01T00:03:32;2.85;;;1.77;;
37609;SDS011;23457;51.966;8.230;2023-08-01T00:05:59;2.22;;;1.88;;
37609;SDS011;23457;51.966;8.230;2023-08-01T00:08:26;4.00;;;2.10;;
37609;SDS011;23457;51.966;8.230;2023-08-01T00:10:52;4.00;;;2.20;;
37609;SDS011;23457;51.966;8.230;2023-08-01T00:13:19;2.75;;;1.88;;
37609;SDS011;23457;51.966;8.230;2023-08-01T00:15:46;3.47;;;2.15;;
37609;SDS011;23457;51.966;8.230;2023-08-01T00:18:31;3.78;;;2.30;;
37609;SDS011;23457;51.966;8.230;2023-08-01T00:20:58;4.53;;;2.42;;
37609;SDS011;23457;51.966;8.230;2023-08-01T00:23:25;3.50;;;2.00;;
37609;SDS011;23457;51.966;8.230;2023-08-01T00:25:52;3.83;;;2.20;;
37609;SDS011;23457;51.966;8.230;2023-08-01T00:28:18;3.95;;;2.53;;
37609;SDS011;23457;51.966;8.230;2023-08-01T00:30:45;3.83;;;2.20;;
37609;SDS011;23457;51.966;8.230;2023-08-01T00:33:12;3.75;;;2.10;;
37609;SDS011;23457;51.966;8.230;2023-08-01T00:35:39;5.63;;;2.47;;
37609;SDS011;23457;51.966;8.230;2023-08-01T00:38:06;2.95;;;2.47;;
37609;SDS011;23457;51.966;8.230;2023-08-01T00:40:33;3.45;;;2.20;;
37609;SDS011;23457;51.966;8.230;2023-08-01T00:43:00;2.47;;;2.10;;
37609;SDS011;23457;51.966;8.230;2023-08-01T00:45:26;2.92;;;2.35;;
37609;SDS011;23457;51.966;8.230;2023-08-01T00:47:54;3.75;;;2.40;;
37609;SDS011;23457;51.966;8.230;2023-08-01T00:50:21;3.33;;;1.85;;
37609;SDS011;23457;51.966;8.230;2023-08-01T00:52:50;2.90;;;2.10;;
37609;SDS011;23457;51.966;8.230;2023-08-01T00:55:18;1.80;;;1.70;;
37609;SDS011;23457;51.966;8.230;2023-08-01T00:57:45;3.60;;;1.90;;
37609;SDS011;23457;51.966;8.230;2023-08-01T01:00:12;2.80;;;1.83;;
37609;SDS011;23457;51.966;8.230;2023-08-01T01:02:40;4.03;;;1.92;;
37609;SDS011;23457;51.966;8.230;2023-08-01T01:05:07;4.47;;;2.53;;
37609;SDS011;23457;51.966;8.230;2023-08-01T01:07:34;3.38;;;1.90;;
37609;SDS011;23457;51.966;8.230;2023-08-01T01:10:02;3.78;;;2.00;;
37609;SDS011;23457;51.966;8.230;2023-08-01T01:12:29;5.25;;;2.13;;
37609;SDS011;23457;51.966;8.230;2023-08-01T01:14:55;3.75;;;2.35;;
37609;SDS011;23457;51.966;8.230;2023-08-01T01:17:22;2.60;;;2.05;;
37609;SDS011;23457;51.966;8.230;2023-08-01T01:19:49;2.53;;;2.00;;
37609;SDS011;23457;51.966;8.230;2023-08-01T01:22:16;4.40;;;2.30;;
37609;SDS011;23457;51.966;8.230;2023-08-01T01:24:43;3.65;;;2.38;;
37609;SDS011;23457;51.966;8.230;2023-08-01T01:27:11;3.50;;;2.20;;
37609;SDS011;23457;51.966;8.230;2023-08-01T01:29:38;2.42;;;2.22;;
37609;SDS011;23457;51.966;8.230;2023-08-01T01:32:10;2.95;;;2.20;;
37609;SDS011;23457;51.966;8.230;2023-08-01T01:34:37;6.07;;;2.40;;
37609;SDS011;23457;51.966;8.230;2023-08-01T01:37:04;3.10;;;2.10;;
37609;SDS011;23457;51.966;8.230;2023-08-01T01:39:31;2.88;;;2.13;;
37609;SDS011;23457;51.966;8.230;2023-08-01T01:41:58;4.22;;;2.03;;
37609;SDS011;23457;51.966;8.230;2023-08-01T01:44:25;2.90;;;2.08;;
37609;SDS011;23457;51.966;8.230;2023-08-01T01:46:51;4.32;;;2.17;;
37609;SDS011;23457;51.966;8.230;2023-08-01T01:49:18;3.38;;;1.95;;
37609;SDS011;23457;51.966;8.230;2023-08-01T01:51:45;4.43;;;2.63;;
37609;SDS011;23457;51.966;8.230;2023-08-01T01:54:11;4.65;;;2.20;;
37609;SDS011;23457;51.966;8.230;2023-08-01T01:56:38;3.20;;;2.00;;
37609;SDS011;23457;51.966;8.230;2023-08-01T01:59:05;3.22;;;2.20;;
37609;SDS011;23457;51.966;8.230;2023-08-01T02:01:31;3.45;;;2.33;;
37609;SDS011;23457;51.966;8.230;2023-08-01T02:03:59;3.05;;;2.25;;
37609;SDS011;23457;51.966;8.230;2023-08-01T02:06:25;2.97;;;1.98;;
37609;SDS011;23457;51.966;8.230;2023-08-01T02:08:52;11.05;;;2.25;;
37609;SDS011;23457;51.966;8.230;2023-08-01T02:11:19;3.17;;;2.15;;
37609;SDS011;23457;51.966;8.230;2023-08-01T02:13:46;3.13;;;2.20;;
37609;SDS011;23457;51.966;8.230;2023-08-01T02:16:13;4.68;;;2.28;;
37609;SDS011;23457;51.966;8.230;2023-08-01T02:18:39;3.55;;;2.42;;
37609;SDS011;23457;51.966;8.230;2023-08-01T02:21:06;3.42;;;2.50;;
37609;SDS011;23457;51.966;8.230;2023-08-01T02:23:33;5.60;;;2.92;;
37609;SDS011;23457;51.966;8.230;2023-08-01T02:28:29;4.43;;;2.72;;
37609;SDS011;23457;51.966;8.230;2023-08-01T02:30:56;4.05;;;3.03;;
37609;SDS011;23457;51.966;8.230;2023-08-01T02:33:22;3.60;;;3.30;;
37609;SDS011;23457;51.966;8.230;2023-08-01T02:35:49;3.42;;;3.13;;
37609;SDS011;23457;51.966;8.230;2023-08-01T02:38:16;4.65;;;3.03;;
37609;SDS011;23457;51.966;8.230;2023-08-01T02:40:42;4.65;;;2.90;;
37609;SDS011;23457;51.966;8.230;2023-08-01T02:43:09;4.00;;;2.63;;
37609;SDS011;23457;51.966;8.230;2023-08-01T02:45:35;4.70;;;3.50;;
37609;SDS011;23457;51.966;8.230;2023-08-01T02:48:02;3.95;;;3.00;;
37609;SDS011;23457;51.966;8.230;2023-08-01T02:50:29;5.85;;;3.10;;
37609;SDS011;23457;51.966;8.230;2023-08-01T02:52:56;6.30;;;2.88;;
37609;SDS011;23457;51.966;8.230;2023-08-01T02:55:22;5.63;;;2.90;;
37609;SDS011;23457;51.966;8.230;2023-08-01T02:57:49;5.13;;;2.92;;
37609;SDS011;23457;51.966;8.230;2023-08-01T03:00:16;5.38;;;2.97;;
37609;SDS011;23457;51.966;8.230;2023-08-01T03:02:45;4.65;;;3.30;;
37609;SDS011;23457;51.966;8.230;2023-08-01T03:05:12;4.50;;;3.35;;
37609;SDS011;23457;51.966;8.230;2023-08-01T03:07:38;4.07;;;2.65;;
37609;SDS011;23457;51.966;8.230;2023-08-01T03:10:06;2.58;;;2.38;;
37609;SDS011;23457;51.966;8.230;2023-08-01T03:15:02;5.22;;;2.80;;
37609;SDS011;23457;51.966;8.230;2023-08-01T03:17:29;3.75;;;2.70;;
37609;SDS011;23457;51.966;8.230;2023-08-01T03:19:56;5.25;;;2.83;;
37609;SDS011;23457;51.966;8.230;2023-08-01T03:22:22;4.45;;;2.70;;
37609;SDS011;23457;51.966;8.230;2023-08-01T03:24:49;4.85;;;2.92;;
37609;SDS011;23457;51.966;8.230;2023-08-01T03:27:16;4.95;;;3.15;;
37609;SDS011;23457;51.966;8.230;2023-08-01T03:29:42;3.92;;;3.28;;
37609;SDS011;23457;51.966;8.230;2023-08-01T03:32:09;6.63;;;3.50;;
37609;SDS011;23457;51.966;8.230;2023-08-01T03:34:35;6.28;;;3.30;;
37609;SDS011;23457;51.966;8.230;2023-08-01T03:37:03;6.32;;;4.10;;
37609;SDS011;23457;51.966;8.230;2023-08-01T03:39:30;6.90;;;3.67;;
37609;SDS011;23457;51.966;8.230;2023-08-01T03:41:57;5.45;;;3.72;;
37609;SDS011;23457;51.966;8.230;2023-08-01T03:44:23;7.47;;;4.18;;
37609;SDS011;23457;51.966;8.230;2023-08-01T03:46:50;8.32;;;4.13;;
37609;SDS011;23457;51.966;8.230;2023-08-01T03:49:17;7.85;;;4.10;;
37609;SDS011;23457;51.966;8.230;2023-08-01T03:51:44;5.20;;;4.65;;
37609;SDS011;23457;51.966;8.230;2023-08-01T03:54:11;8.25;;;5.10;;
37609;SDS011;23457;51.966;8.230;2023-08-01T03:56:39;5.78;;;4.75;;
37609;SDS011;23457;51.966;8.230;2023-08-01T03:59:10;6.07;;;4.85;;
37609;SDS011;23457;51.966;8.230;2023-08-01T04:01:40;9.50;;;4.82;;
37609;SDS011;23457;51.966;8.230;2023-08-01T04:04:07;6.40;;;4.88;;
37609;SDS011;23457;51.966;8.230;2023-08-01T04:06:37;8.43;;;5.15;;
37609;SDS011;23457;51.966;8.230;2023-08-01T04:09:05;11.93;;;5.05;;
37609;SDS011;23457;51.966;8.230;2023-08-01T04:11:32;5.60;;;5.10;;
37609;SDS011;23457;51.966;8.230;2023-08-01T04:13:59;6.60;;;4.78;;
37609;SDS011;23457;51.966;8.230;2023-08-01T04:16:26;5.55;;;4.88;;
37609;SDS011;23457;51.966;8.230;2023-08-01T04:18:53;5.43;;;4.90;;
37609;SDS011;23457;51.966;8.230;2023-08-01T04:21:19;9.65;;;5.45;;
37609;SDS011;23457;51.966;8.230;2023-08-01T04:23:46;7.18;;;5.35;;
37609;SDS011;23457;51.966;8.230;2023-08-01T04:26:12;9.63;;;5.20;;
37609;SDS011;23457;51.966;8.230;2023-08-01T04:28:39;7.60;;;4.97;;
37609;SDS011;23457;51.966;8.230;2023-08-01T04:31:06;7.72;;;5.50;;
37609;SDS011;23457;51.966;8.230;2023-08-01T04:33:33;9.50;;;6.90;;
37609;SDS011;23457;51.966;8.230;2023-08-01T04:35:59;9.35;;;6.63;;
37609;SDS011;23457;51.966;8.230;2023-08-01T04:38:26;10.35;;;7.13;;
37609;SDS011;23457;51.966;8.230;2023-08-01T04:40:52;11.10;;;7.97;;
37609;SDS011;23457;51.966;8.230;2023-08-01T04:43:19;10.90;;;7.65;;
37609;SDS011;23457;51.966;8.230;2023-08-01T04:45:45;11.18;;;8.50;;
37609;SDS011;23457;51.966;8.230;2023-08-01T04:48:12;13.63;;;8.48;;
37609;SDS011;23457;51.966;8.230;2023-08-01T04:50:39;13.00;;;9.70;;
37609;SDS011;23457;51.966;8.230;2023-08-01T04:53:05;11.15;;;8.25;;
37609;SDS011;23457;51.966;8.230;2023-08-01T04:55:32;16.35;;;9.07;;
37609;SDS011;23457;51.966;8.230;2023-08-01T04:57:59;13.88;;;9.23;;
37609;SDS011;23457;51.966;8.230;2023-08-01T05:00:26;14.95;;;9.20;;
37609;SDS011;23457;51.966;8.230;2023-08-01T05:02:53;12.63;;;8.55;;
37609;SDS011;23457;51.966;8.230;2023-08-01T05:05:20;17.45;;;8.50;;
37609;SDS011;23457;51.966;8.230;2023-08-01T05:07:47;13.10;;;9.00;;
37609;SDS011;23457;51.966;8.230;2023-08-01T05:10:13;15.27;;;8.68;;
37609;SDS011;23457;51.966;8.230;2023-08-01T05:12:43;15.73;;;9.35;;
37609;SDS011;23457;51.966;8.230;2023-08-01T05:15:09;14.65;;;9.02;;
37609;SDS011;23457;51.966;8.230;2023-08-01T05:17:36;18.38;;;9.73;;
37609;SDS011;23457;51.966;8.230;2023-08-01T05:20:03;13.88;;;9.13;;
37609;SDS011;23457;51.966;8.230;2023-08-01T05:22:30;17.75;;;9.15;;
37609;SDS011;23457;51.966;8.230;2023-08-01T05:24:57;15.73;;;10.30;;
37609;SDS011;23457;51.966;8.230;2023-08-01T05:27:24;16.25;;;9.82;;
37609;SDS011;23457;51.966;8.230;2023-08-01T05:29:50;14.23;;;9.43;;
37609;SDS011;23457;51.966;8.230;2023-08-01T05:32:17;17.90;;;9.80;;
37609;SDS011;23457;51.966;8.230;2023-08-01T05:34:44;17.45;;;9.80;;
37609;SDS011;23457;51.966;8.230;2023-08-01T05:37:10;16.80;;;9.40;;
37609;SDS011;23457;51.966;8.230;2023-08-01T05:39:37;23.20;;;11.25;;
37609;SDS011;23457;51.966;8.230;2023-08-01T05:42:03;16.02;;;9.48;;
37609;SDS011;23457;51.966;8.230;2023-08-01T05:44:34;17.90;;;9.82;;
37609;SDS011;23457;51.966;8.230;2023-08-01T05:47:01;20.13;;;10.02;;
37609;SDS011;23457;51.966;8.230;2023-08-01T05:49:28;18.60;;;10.20;;
37609;SDS011;23457;51.966;8.230;2023-08-01T05:51:56;15.00;;;9.82;;
37609;SDS011;23457;51.966;8.230;2023-08-01T05:54:22;21.67;;;11.27;;
37609;SDS011;23457;51.966;8.230;2023-08-01T05:56:49;20.52;;;10.48;;
37609;SDS011;23457;51.966;8.230;2023-08-01T05:59:16;21.23;;;10.55;;
37609;SDS011;23457;51.966;8.230;2023-08-01T06:01:43;25.25;;;11.10;;
37609;SDS011;23457;51.966;8.230;2023-08-01T06:04:10;21.92;;;10.40;;
37609;SDS011;23457;51.966;8.230;2023-08-01T06:06:36;18.52;;;10.15;;
37609;SDS011;23457;51.966;8.230;2023-08-01T06:09:03;18.13;;;10.13;;
37609;SDS011;23457;51.966;8.230;2023-08-01T06:11:30;19.45;;;10.25;;
37609;SDS011;23457;51.966;8.230;2023-08-01T06:13:57;23.80;;;10.98;;
37609;SDS011;23457;51.966;8.230;2023-08-01T06:16:23;22.02;;;10.25;;
37609;SDS011;23457;51.966;8.230;2023-08-01T06:21:19;22.67;;;10.77;;
37609;SDS011;23457;51.966;8.230;2023-08-01T06:23:46;18.77;;;11.25;;
37609;SDS011;23457;51.966;8.230;2023-08-01T06:26:13;20.83;;;10.35;;
37609;SDS011;23457;51.966;8.230;2023-08-01T06:28:41;20.98;;;11.10;;
37609;SDS011;23457;51.966;8.230;2023-08-01T06:31:08;23.67;;;11.15;;
37609;SDS011;23457;51.966;8.230;2023-08-01T06:33:35;23.83;;;11.93;;
37609;SDS011;23457;51.966;8.230;2023-08-01T06:36:02;23.10;;;11.60;;
37609;SDS011;23457;51.966;8.230;2023-08-01T06:38:28;23.60;;;12.35;;
37609;SDS011;23457;51.966;8.230;2023-08-01T06:40:55;23.67;;;11.57;;
37609;SDS011;23457;51.966;8.230;2023-08-01T06:43:21;22.27;;;12.65;;
37609;SDS011;23457;51.966;8.230;2023-08-01T06:45:50;25.58;;;13.02;;
37609;SDS011;23457;51.966;8.230;2023-08-01T06:48:17;27.85;;;13.40;;
37609;SDS011;23457;51.966;8.230;2023-08-01T06:50:44;24.42;;;12.43;;
37609;SDS011;23457;51.966;8.230;2023-08-01T06:53:11;24.55;;;13.43;;
37609;SDS011;23457;51.966;8.230;2023-08-01T06:55:37;23.42;;;13.45;;
37609;SDS011;23457;51.966;8.230;2023-08-01T06:58:04;23.92;;;15.48;;
37609;SDS011;23457;51.966;8.230;2023-08-01T07:00:31;29.60;;;14.60;;
37609;SDS011;23457;51.966;8.230;2023-08-01T07:02:58;28.15;;;15.23;;
37609;SDS011;23457;51.966;8.230;2023-08-01T07:05:25;28.95;;;15.82;;
37609;SDS011;23457;51.966;8.230;2023-08-01T07:07:51;23.25;;;16.05;;
37609;SDS011;23457;51.966;8.230;2023-08-01T07:10:18;26.65;;;16.27;;
37609;SDS011;23457;51.966;8.230;2023-08-01T07:12:44;27.42;;;16.08;;
37609;SDS011;23457;51.966;8.230;2023-08-01T07:15:11;22.90;;;15.25;;
37609;SDS011;23457;51.966;8.230;2023-08-01T07:17:37;25.27;;;14.80;;
37609;SDS011;23457;51.966;8.230;2023-08-01T07:20:04;23.50;;;14.38;;
37609;SDS011;23457;51.966;8.230;2023-08-01T07:22:31;24.95;;;13.98;;
37609;SDS011;23457;51.966;8.230;2023-08-01T07:24:58;20.05;;;13.20;;
37609;SDS011;23457;51.966;8.230;2023-08-01T07:27:24;19.35;;;12.68;;
37609;SDS011;23457;51.966;8.230;2023-08-01T07:29:51;22.35;;;12.23;;
37609;SDS011;23457;51.966;8.230;2023-08-01T07:32:18;24.48;;;13.57;;
37609;SDS011;23457;51.966;8.230;2023-08-01T07:34:45;24.27;;;13.95;;
37609;SDS011;23457;51.966;8.230;2023-08-01T07:37:11;24.45;;;13.40;;
37609;SDS011;23457;51.966;8.230;2023-08-01T07:39:38;21.17;;;12.48;;
37609;SDS011;23457;51.966;8.230;2023-08-01T07:42:06;21.20;;;14.52;;
37609;SDS011;23457;51.966;8.230;2023-08-01T07:44:33;20.13;;;13.15;;
37609;SDS011;23457;51.966;8.230;2023-08-01T07:46:59;21.42;;;13.73;;
37609;SDS011;23457;51.966;8.230;2023-08-01T07:49:26;27.08;;;15.15;;
37609;SDS011;23457;51.966;8.230;2023-08-01T07:51:53;25.13;;;14.05;;
37609;SDS011;23457;51.966;8.230;2023-08-01T07:54:20;24.23;;;14.00;;
37609;SDS011;23457;51.966;8.230;2023-08-01T07:56:46;22.85;;;14.75;;
37609;SDS011;23457;51.966;8.230;2023-08-01T07:59:15;20.70;;;13.55;;
37609;SDS011;23457;51.966;8.230;2023-08-01T08:01:42;23.58;;;13.88;;
37609;SDS011;23457;51.966;8.230;2023-08-01T08:04:09;17.17;;;9.82;;
37609;SDS011;23457;51.966;8.230;2023-08-01T08:06:38;12.68;;;8.50;;
37609;SDS011;23457;51.966;8.230;2023-08-01T08:09:05;14.25;;;7.78;;
37609;SDS011;23457;51.966;8.230;2023-08-01T08:11:32;15.15;;;7.90;;
37609;SDS011;23457;51.966;8.230;2023-08-01T08:13:59;16.55;;;8.07;;
37609;SDS011;23457;51.966;8.230;2023-08-01T08:16:26;14.25;;;8.68;;
37609;SDS011;23457;51.966;8.230;2023-08-01T08:18:53;19.45;;;9.77;;
37609;SDS011;23457;51.966;8.230;2023-08-01T08:21:20;25.73;;;11.35;;
37609;SDS011;23457;51.966;8.230;2023-08-01T08:23:46;21.85;;;10.68;;
37609;SDS011;23457;51.966;8.230;2023-08-01T08:26:13;19.17;;;11.57;;
37609;SDS011;23457;51.966;8.230;2023-08-01T08:28:40;18.77;;;10.88;;
37609;SDS011;23457;51.966;8.230;2023-08-01T08:31:08;20.33;;;12.57;;
37609;SDS011;23457;51.966;8.230;2023-08-01T08:33:35;21.00;;;12.23;;
37609;SDS011;23457;51.966;8.230;2023-08-01T08:36:01;22.58;;;13.18;;
37609;SDS011;23457;51.966;8.230;2023-08-01T08:38:28;25.58;;;15.82;;
37609;SDS011;23457;51.966;8.230;2023-08-01T08:41:19;23.90;;;13.10;;
37609;SDS011;23457;51.966;8.230;2023-08-01T08:43:56;16.65;;;10.48;;
37609;SDS011;23457;51.966;8.230;2023-08-01T08:46:29;22.48;;;11.00;;
37609;SDS011;23457;51.966;8.230;2023-08-01T08:48:56;17.55;;;10.10;;
37609;SDS011;23457;51.966;8.230;2023-08-01T08:51:25;17.13;;;9.40;;
37609;SDS011;23457;51.966;8.230;2023-08-01T08:53:53;18.73;;;10.40;;
37609;SDS011;23457;51.966;8.230;2023-08-01T08:56:26;18.13;;;12.55;;
37609;SDS011;23457;51.966;8.230;2023-08-01T08:58:55;23.13;;;13.63;;
37609;SDS011;23457;51.966;8.230;2023-08-01T09:01:22;27.90;;;14.55;;
37609;SDS011;23457;51.966;8.230;2023-08-01T09:03:49;23.17;;;15.10;;
37609;SDS011;23457;51.966;8.230;2023-08-01T09:06:17;22.92;;;15.73;;
37609;SDS011;23457;51.966;8.230;2023-08-01T09:08:51;23.60;;;16.20;;
37609;SDS011;23457;51.966;8.230;2023-08-01T09:11:22;29.38;;;16.95;;
37609;SDS011;23457;51.966;8.230;2023-08-01T09:13:49;31.90;;;18.40;;
37609;SDS011;23457;51.966;8.230;2023-08-01T09:16:16;29.45;;;17.33;;
37609;SDS011;23457;51.966;8.230;2023-08-01T09:18:49;26.27;;;11.05;;
37609;SDS011;23457;51.966;8.230;2023-08-01T09:21:18;16.00;;;8.38;;
37609;SDS011;23457;51.966;8.230;2023-08-01T09:23:45;16.63;;;9.05;;
37609;SDS011;23457;51.966;8.230;2023-08-01T09:26:15;16.20;;;10.55;;
37609;SDS011;23457;51.966;8.230;2023-08-01T09:28:43;26.88;;;12.25;;
37609;SDS011;23457;51.966;8.230;2023-08-01T09:31:09;23.95;;;13.60;;
37609;SDS011;23457;51.966;8.230;2023-08-01T09:33:40;25.90;;;15.60;;
37609;SDS011;23457;51.966;8.230;2023-08-01T09:36:07;24.33;;;14.65;;
37609;SDS011;23457;51.966;8.230;2023-08-01T09:38:37;23.10;;;14.45;;
37609;SDS011;23457;51.966;8.230;2023-08-01T09:41:04;24.55;;;13.73;;
37609;SDS011;23457;51.966;8.230;2023-08-01T09:43:35;24.77;;;14.30;;
37609;SDS011;23457;51.966;8.230;2023-08-01T09:46:02;24.25;;;14.73;;
37609;SDS011;23457;51.966;8.230;2023-08-01T09:48:30;19.63;;;11.85;;
37609;SDS011;23457;51.966;8.230;2023-08-01T09:51:30;17.75;;;11.52;;
37609;SDS011;23457;51.966;8.230;2023-08-01T09:53:51;17.08;;;10.52;;
37609;SDS011;23457;51.966;8.230;2023-08-01T09:56:20;17.13;;;9.68;;
37609;SDS011;23457;51.966;8.230;2023-08-01T09:58:48;15.80;;;9.40;;
37609;SDS011;23457;51.966;8.230;2023-08-01T10:01:17;16.25;;;9.45;;
37609;SDS011;23457;51.966;8.230;2023-08-01T10:03:46;16.80;;;10.57;;
37609;SDS011;23457;51.966;8.230;2023-08-01T10:06:18;21.50;;;9.52;;
37609;SDS011;23457;51.966;8.230;2023-08-01T10:08:50;17.77;;;7.45;;
37609;SDS011;23457;51.966;8.230;2023-08-01T10:11:19;14.57;;;7.00;;
37609;SDS011;23457;51.966;8.230;2023-08-01T10:13:47;14.07;;;6.22;;
37609;SDS011;23457;51.966;8.230;2023-08-01T10:16:15;13.35;;;6.82;;
37609;SDS011;23457;51.966;8.230;2023-08-01T10:18:42;13.98;;;5.82;;
37609;SDS011;23457;51.966;8.230;2023-08-01T10:21:11;10.57;;;5.95;;
37609;SDS011;23457;51.966;8.230;2023-08-01T10:23:39;12.95;;;5.97;;
37609;SDS011;23457;51.966;8.230;2023-08-01T10:26:08;10.55;;;5.80;;
37609;SDS011;23457;51.966;8.230;2023-08-01T10:28:38;10.55;;;4.90;;
37609;SDS011;23457;51.966;8.230;2023-08-01T10:31:10;8.52;;;4.85;;
37609;SDS011;23457;51.966;8.230;2023-08-01T10:33:42;9.38;;;4.63;;
37609;SDS011;23457;51.966;8.230;2023-08-01T10:38:53;8.45;;;3.75;;
37609;SDS011;23457;51.966;8.230;2023-08-01T10:49:16;11.13;;;3.85;;
37609;SDS011;23457;51.966;8.230;2023-08-01T10:51:44;7.45;;;4.28;;
37609;SDS011;23457;51.966;8.230;2023-08-01T10:54:18;6.97;;;3.70;;
37609;SDS011;23457;51.966;8.230;2023-08-01T10:56:47;11.23;;;3.90;;
37609;SDS011;23457;51.966;8.230;2023-08-01T10:59:17;7.20;;;3.38;;
37609;SDS011;23457;51.966;8.230;2023-08-01T11:01:48;7.82;;;3.00;;
37609;SDS011;23457;51.966;8.230;2023-08-01T11:04:18;7.22;;;3.00;;
37609;SDS011;23457;51.966;8.230;2023-08-01T11:06:46;10.15;;;3.45;;
37609;SDS011;23457;51.966;8.230;2023-08-01T11:09:18;6.22;;;3.60;;
37609;SDS011;23457;51.966;8.230;2023-08-01T11:11:46;10.73;;;4.07;;
37609;SDS011;23457;51.966;8.230;2023-08-01T11:14:15;8.40;;;4.43;;
37609;SDS011;23457;51.966;8.230;2023-08-01T11:16:43;13.27;;;5.43;;
37609;SDS011;23457;51.966;8.230;2023-08-01T11:19:20;8.23;;;4.38;;
37609;SDS011;23457;51.966;8.230;2023-08-01T11:21:48;7.15;;;4.57;;
37609;SDS011;23457;51.966;8.230;2023-08-01T11:24:16;7.38;;;4.10;;
37609;SDS011;23457;51.966;8.230;2023-08-01T11:26:44;8.52;;;4.55;;
37609;SDS011;23457;51.966;8.230;2023-08-01T11:29:13;9.32;;;4.82;;
37609;SDS011;23457;51.966;8.230;2023-08-01T11:31:41;13.02;;;4.93;;
37609;SDS011;23457;51.966;8.230;2023-08-01T11:34:18;8.02;;;5.15;;
37609;SDS011;23457;51.966;8.230;2023-08-01T11:36:45;8.50;;;5.13;;
37609;SDS011;23457;51.966;8.230;2023-08-01T11:39:12;9.90;;;5.18;;
37609;SDS011;23457;51.966;8.230;2023-08-01T11:41:41;7.57;;;3.97;;
37609;SDS011;23457;51.966;8.230;2023-08-01T11:44:08;11.23;;;4.75;;
37609;SDS011;23457;51.966;8.230;2023-08-01T11:46:37;7.93;;;4.43;;
37609;SDS011;23457;51.966;8.230;2023-08-01T11:49:05;8.10;;;4.27;;
37609;SDS011;23457;51.966;8.230;2023-08-01T11:51:40;9.30;;;4.85;;
37609;SDS011;23457;51.966;8.230;2023-08-01T11:54:08;8.50;;;4.20;;
37609;SDS011;23457;51.966;8.230;2023-08-01T11:56:37;8.23;;;3.55;;
37609;SDS011;23457;51.966;8.230;2023-08-01T11:59:12;8.13;;;3.63;;
37609;SDS011;23457;51.966;8.230;2023-08-01T12:01:44;7.75;;;3.17;;
37609;SDS011;23457;51.966;8.230;2023-08-01T12:04:12;8.23;;;3.42;;
37609;SDS011;23457;51.966;8.230;2023-08-01T12:06:51;9.40;;;3.13;;
37609;SDS011;23457;51.966;8.230;2023-08-01T12:09:18;10.15;;;3.72;;
37609;SDS011;23457;51.966;8.230;2023-08-01T12:11:46;9.88;;;4.57;;
37609;SDS011;23457;51.966;8.230;2023-08-01T12:14:13;5.82;;;3.00;;
37609;SDS011;23457;51.966;8.230;2023-08-01T12:16:42;4.88;;;2.83;;
37609;SDS011;23457;51.966;8.230;2023-08-01T12:19:20;7.18;;;2.70;;
37609;SDS011;23457;51.966;8.230;2023-08-01T12:21:47;7.95;;;2.97;;
37609;SDS011;23457;51.966;8.230;2023-08-01T12:24:14;7.78;;;3.65;;
37609;SDS011;23457;51.966;8.230;2023-08-01T12:26:41;12.52;;;3.35;;
37609;SDS011;23457;51.966;8.230;2023-08-01T12:29:09;6.22;;;3.08;;
37609;SDS011;23457;51.966;8.230;2023-08-01T12:31:36;7.03;;;3.22;;
37609;SDS011;23457;51.966;8.230;2023-08-01T12:34:03;5.85;;;2.67;;
37609;SDS011;23457;51.966;8.230;2023-08-01T12:36:30;5.38;;;2.70;;
37609;SDS011;23457;51.966;8.230;2023-08-01T12:38:57;4.40;;;2.40;;
37609;SDS011;23457;51.966;8.230;2023-08-01T12:41:24;5.60;;;2.17;;
37609;SDS011;23457;51.966;8.230;2023-08-01T12:43:51;4.45;;;1.90;;
37609;SDS011;23457;51.966;8.230;2023-08-01T12:46:17;2.53;;;1.50;;
37609;SDS011;23457;51.966;8.230;2023-08-01T12:48:44;2.78;;;1.42;;
37609;SDS011;23457;51.966;8.230;2023-08-01T12:51:11;4.75;;;2.03;;
37609;SDS011;23457;51.966;8.230;2023-08-01T12:53:38;5.63;;;1.38;;
37609;SDS011;23457;51.966;8.230;2023-08-01T12:56:09;3.78;;;1.60;;
37609;SDS011;23457;51.966;8.230;2023-08-01T12:58:36;5.72;;;1.77;;
37609;SDS011;23457;51.966;8.230;2023-08-01T13:01:03;5.25;;;1.75;;
37609;SDS011;23457;51.966;8.230;2023-08-01T13:03:30;6.05;;;2.42;;
37609;SDS011;23457;51.966;8.230;2023-08-01T13:05:57;6.45;;;2.58;;
37609;SDS011;23457;51.966;8.230;2023-08-01T13:08:24;5.53;;;2.30;;
37609;SDS011;23457;51.966;8.230;2023-08-01T13:10:51;2.72;;;1.95;;
37609;SDS011;23457;51.966;8.230;2023-08-01T13:13:18;3.42;;;1.73;;
37609;SDS011;23457;51.966;8.230;2023-08-01T13:15:45;4.82;;;2.10;;
37609;SDS011;23457;51.966;8.230;2023-08-01T13:18:12;3.97;;;1.88;;
37609;SDS011;23457;51.966;8.230;2023-08-01T13:20:40;5.05;;;2.47;;
37609;SDS011;23457;51.966;8.230;2023-08-01T13:23:07;3.58;;;1.85;;
37609;SDS011;23457;51.966;8.230;2023-08-01T13:25:34;4.75;;;1.90;;
37609;SDS011;23457;51.966;8.230;2023-08-01T13:28:02;6.18;;;2.05;;
37609;SDS011;23457;51.966;8.230;2023-08-01T13:30:29;7.38;;;1.90;;
37609;SDS011;23457;51.966;8.230;2023-08-01T13:32:55;4.05;;;1.80;;
37609;SDS011;23457;51.966;8.230;2023-08-01T13:35:22;4.40;;;1.55;;
37609;SDS011;23457;51.966;8.230;2023-08-01T13:37:49;5.07;;;1.73;;
37609;SDS011;23457;51.966;8.230;2023-08-01T13:40:16;5.80;;;1.65;;
37609;SDS011;23457;51.966;8.230;2023-08-01T13:42:42;4.63;;;1.83;;
37609;SDS011;23457;51.966;8.230;2023-08-01T13:45:09;4.28;;;1.65;;
37609;SDS011;23457;51.966;8.230;2023-08-01T13:47:36;7.65;;;2.33;;
37609;SDS011;23457;51.966;8.230;2023-08-01T13:50:03;7.32;;;2.13;;
37609;SDS011;23457;51.966;8.230;2023-08-01T13:52:31;8.27;;;2.15;;
37609;SDS011;23457;51.966;8.230;2023-08-01T13:54:58;6.05;;;2.45;;
37609;SDS011;23457;51.966;8.230;2023-08-01T13:57:25;6.50;;;2.13;;
37609;SDS011;23457;51.966;8.230;2023-08-01T13:59:52;8.75;;;2.70;;
37609;SDS011;23457;51.966;8.230;2023-08-01T14:02:41;7.70;;;3.33;;
37609;SDS011;23457;51.966;8.230;2023-08-01T14:05:08;8.48;;;3.17;;
37609;SDS011;23457;51.966;8.230;2023-08-01T14:07:36;8.75;;;2.85;;
37609;SDS011;23457;51.966;8.230;2023-08-01T14:10:10;9.95;;;2.78;;
37609;SDS011;23457;51.966;8.230;2023-08-01T14:12:41;8.32;;;2.60;;
37609;SDS011;23457;51.966;8.230;2023-08-01T14:15:08;11.80;;;3.50;;
37609;SDS011;23457;51.966;8.230;2023-08-01T14:17:35;6.80;;;2.75;;
37609;SDS011;23457;51.966;8.230;2023-08-01T14:20:03;7.07;;;3.03;;
37609;SDS011;23457;51.966;8.230;2023-08-01T14:22:33;9.55;;;3.13;;
37609;SDS011;23457;51.966;8.230;2023-08-01T14:25:00;11.80;;;3.28;;
37609;SDS011;23457;51.966;8.230;2023-08-01T14:27:27;4.72;;;2.30;;
37609;SDS011;23457;51.966;8.230;2023-08-01T14:29:54;7.68;;;2.40;;
37609;SDS011;23457;51.966;8.230;2023-08-01T14:32:20;5.22;;;2.78;;
37609;SDS011;23457;51.966;8.230;2023-08-01T14:34:47;6.90;;;2.67;;
37609;SDS011;23457;51.966;8.230;2023-08-01T14:37:14;4.78;;;2.10;;
37609;SDS011;23457;51.966;8.230;2023-08-01T14:39:41;10.00;;;2.45;;
37609;SDS011;23457;51.966;8.230;2023-08-01T14:42:07;7.78;;;2.40;;
37609;SDS011;23457;51.966;8.230;2023-08-01T14:44:34;8.02;;;2.90;;
37609;SDS011;23457;51.966;8.230;2023-08-01T14:47:01;7.57;;;3.45;;
37609;SDS011;23457;51.966;8.230;2023-08-01T14:49:28;9.93;;;3.10;;
37609;SDS011;23457;51.966;8.230;2023-08-01T14:51:56;11.02;;;2.90;;
37609;SDS011;23457;51.966;8.230;2023-08-01T14:54:23;6.32;;;2.80;;
37609;SDS011;23457;51.966;8.230;2023-08-01T14:57:06;6.93;;;2.35;;
37609;SDS011;23457;51.966;8.230;2023-08-01T14:59:33;5.82;;;2.30;;